Time;durP1;ratioP1;P1;durP2;ratioP2;P2;SDS_P1;SDS_P2;PMS_P1;PMS_P2;Temp;Humidity;BMP_temperature;BMP_pressure;BME280_temperature;BME280_humidity;BME280_pressure;Samples;Min_cycle;Max_cycle;Signal;HPM_P1;HPM_P2
2023/10/14 00:01:34;;;;;;;10.32;9.25;;;;;;;;;;4992839;28;20046;-76
2023/10/14 00:04:10;;;;;;;10.27;9.40;;;;;;;;;;4996745;28;20034;-75
2023/10/14 00:06:38;;;;;;;14.98;9.52;;;;;;;;;;4988961;28;20463;-75
2023/10/14 00:09:51;;;;;;;10.50;9.43;;;;;;;;;;5004996;28;20050;-75
2023/10/14 00:12:17;;;;;;;10.45;9.55;;;;;;;;;;4954323;28;20158;-75
2023/10/14 00:14:45;;;;;;;11.50;9.68;;;;;;;;;;4958250;28;20137;-76
2023/10/14 00:17:16;;;;;;;10.43;9.45;;;;;;;;;;4956621;28;20069;-77
2023/10/14 00:19:42;;;;;;;10.07;9.23;;;;;;;;;;4951709;28;20038;-76
2023/10/14 00:22:08;;;;;;;10.52;9.68;;;;;;;;;;4965623;28;20058;-76
2023/10/14 00:24:37;;;;;;;11.02;9.90;;;;;;;;;;4955356;28;20046;-77
2023/10/14 00:27:07;;;;;;;10.60;9.57;;;;;;;;;;4953996;28;20082;-76
2023/10/14 00:29:34;;;;;;;10.02;9.27;;;;;;;;;;4960955;28;20105;-76
2023/10/14 00:32:03;;;;;;;10.60;9.50;;;;;;;;;;4971971;28;20035;-76
2023/10/14 00:34:29;;;;;;;11.15;9.68;;;;;;;;;;4961803;28;20058;-76
2023/10/14 00:36:56;;;;;;;12.30;9.80;;;;;;;;;;4957302;28;20433;-76
2023/10/14 00:39:28;;;;;;;11.05;9.98;;;;;;;;;;4962074;28;20059;-76
2023/10/14 00:41:55;;;;;;;14.02;9.85;;;;;;;;;;4960041;28;20491;-75
2023/10/14 00:44:26;;;;;;;10.88;9.88;;;;;;;;;;4947855;28;20035;-76
2023/10/14 00:46:53;;;;;;;11.07;10.07;;;;;;;;;;4948464;28;20547;-76
2023/10/14 00:49:31;;;;;;;12.30;10.65;;;;;;;;;;4994143;28;20053;-76
2023/10/14 00:52:00;;;;;;;11.38;10.48;;;;;;;;;;5021403;28;20495;-74
2023/10/14 00:57:20;;;;;;;13.90;10.75;;;;;;;;;;5017875;28;20138;-75
2023/10/14 00:59:48;;;;;;;13.07;10.95;;;;;;;;;;5016825;28;20037;-75
2023/10/14 01:02:14;;;;;;;12.07;11.05;;;;;;;;;;4999740;28;20030;-77
2023/10/14 01:04:53;;;;;;;11.95;10.30;;;;;;;;;;5000815;28;20030;-77
2023/10/14 01:07:21;;;;;;;14.23;10.82;;;;;;;;;;5013070;28;20048;-76
2023/10/14 01:09:53;;;;;;;12.07;10.98;;;;;;;;;;5001786;28;20041;-76
2023/10/14 01:12:26;;;;;;;11.40;10.38;;;;;;;;;;4985924;28;20049;-75
2023/10/14 01:14:53;;;;;;;12.18;10.98;;;;;;;;;;4999380;28;20033;-76
2023/10/14 01:17:25;;;;;;;12.65;11.57;;;;;;;;;;4997798;28;20038;-76
2023/10/14 01:19:51;;;;;;;19.65;11.85;;;;;;;;;;4998796;28;20091;-76
2023/10/14 01:22:17;;;;;;;12.35;11.25;;;;;;;;;;5001146;28;20129;-76
2023/10/14 01:24:43;;;;;;;13.45;12.15;;;;;;;;;;5000708;28;20056;-77
2023/10/14 01:27:10;;;;;;;12.20;11.20;;;;;;;;;;5013257;28;20035;-76
2023/10/14 01:29:40;;;;;;;12.45;11.18;;;;;;;;;;4999464;28;20730;-76
2023/10/14 01:35:26;;;;;;;13.45;12.07;;;;;;;;;;5000791;28;20494;-75
2023/10/14 01:37:56;;;;;;;15.90;11.88;;;;;;;;;;4999339;28;20125;-75
2023/10/14 01:42:57;;;;;;;12.85;11.55;;;;;;;;;;5000136;28;20041;-75
2023/10/14 01:45:31;;;;;;;11.80;10.77;;;;;;;;;;5010092;28;20037;-75
2023/10/14 01:50:38;;;;;;;12.60;11.43;;;;;;;;;;4994846;28;20048;-76
2023/10/14 01:53:11;;;;;;;12.02;10.90;;;;;;;;;;4983983;28;20045;-76
2023/10/14 01:55:43;;;;;;;12.32;11.00;;;;;;;;;;4995494;28;20109;-76
2023/10/14 01:58:21;;;;;;;12.48;11.32;;;;;;;;;;4984800;28;20470;-76
2023/10/14 02:00:52;;;;;;;13.05;11.90;;;;;;;;;;4993708;28;20535;-76
2023/10/14 02:03:20;;;;;;;12.45;11.40;;;;;;;;;;4998365;28;20044;-75
2023/10/14 02:05:46;;;;;;;12.98;11.73;;;;;;;;;;5006373;28;20056;-76
2023/10/14 02:08:14;;;;;;;12.85;11.45;;;;;;;;;;5005260;28;20041;-76
2023/10/14 02:10:46;;;;;;;12.37;11.47;;;;;;;;;;4998646;28;20545;-75
2023/10/14 02:13:22;;;;;;;12.60;11.27;;;;;;;;;;5001426;28;20121;-76
2023/10/14 02:15:49;;;;;;;13.02;11.73;;;;;;;;;;4995842;28;20087;-76
2023/10/14 02:18:20;;;;;;;11.50;10.45;;;;;;;;;;5013043;28;20570;-75
2023/10/14 02:20:56;;;;;;;13.02;11.38;;;;;;;;;;4990242;28;20042;-75
2023/10/14 02:24:04;;;;;;;12.45;11.30;;;;;;;;;;4999364;28;20639;-75
2023/10/14 02:26:25;;;;;;;;;;;;;;;;;;5000169;28;20116;-75
2023/10/14 02:28:53;;;;;;;12.40;11.30;;;;;;;;;;5018256;28;19913;-75
2023/10/14 02:31:29;;;;;;;12.60;11.57;;;;;;;;;;4995174;28;20515;-75
2023/10/14 02:33:57;;;;;;;13.13;11.82;;;;;;;;;;4991722;28;20088;-75
2023/10/14 02:36:29;;;;;;;13.95;11.70;;;;;;;;;;4993092;28;20084;-75
2023/10/14 02:38:56;;;;;;;13.70;12.32;;;;;;;;;;4985734;28;20535;-75
2023/10/14 02:41:26;;;;;;;11.70;10.70;;;;;;;;;;4996676;28;20030;-75
2023/10/14 02:44:01;;;;;;;13.00;11.80;;;;;;;;;;4989231;28;20037;-75
2023/10/14 02:46:27;;;;;;;12.57;11.27;;;;;;;;;;4991845;28;20545;-75
2023/10/14 02:48:53;;;;;;;13.13;11.30;;;;;;;;;;5001310;28;20092;-75
2023/10/14 02:57:00;;;;;;;12.02;10.85;;;;;;;;;;4996571;28;20297;-75
2023/10/14 02:59:43;;;;;;;12.68;11.32;;;;;;;;;;4996085;28;20061;-75
2023/10/14 03:07:28;;;;;;;12.45;11.32;;;;;;;;;;5002540;28;20092;-75
2023/10/14 03:10:10;;;;;;;12.52;11.52;;;;;;;;;;5004059;28;20026;-76
2023/10/14 03:12:49;;;;;;;12.23;11.10;;;;;;;;;;4999357;28;20042;-75
2023/10/14 03:15:20;;;;;;;13.18;11.77;;;;;;;;;;4999034;28;20065;-75
2023/10/14 03:17:56;;;;;;;13.05;11.73;;;;;;;;;;4996046;28;20034;-75
2023/10/14 03:22:55;;;;;;;12.40;11.07;;;;;;;;;;4993327;28;20033;-75
2023/10/14 03:25:24;;;;;;;14.30;11.80;;;;;;;;;;4997228;28;20072;-75
2023/10/14 03:27:58;;;;;;;12.35;11.25;;;;;;;;;;4993976;28;20088;-75
2023/10/14 03:30:24;;;;;;;12.88;11.52;;;;;;;;;;4995004;28;20519;-74
2023/10/14 03:32:50;;;;;;;15.60;11.60;;;;;;;;;;4995472;28;20049;-74
2023/10/14 03:35:20;;;;;;;12.27;11.15;;;;;;;;;;5002169;28;20038;-74
2023/10/14 03:37:59;;;;;;;18.27;11.95;;;;;;;;;;4992701;28;20034;-75
2023/10/14 03:43:14;;;;;;;13.68;12.30;;;;;;;;;;4989749;28;20443;-75
2023/10/14 03:48:45;;;;;;;13.50;11.73;;;;;;;;;;4994948;28;20053;-75
2023/10/14 03:51:13;;;;;;;13.18;11.98;;;;;;;;;;4997397;28;20129;-74
2023/10/14 03:53:39;;;;;;;13.05;11.75;;;;;;;;;;4998494;28;20085;-75
2023/10/14 03:56:04;;;;;;;14.20;11.73;;;;;;;;;;4983162;28;20097;-75
2023/10/14 03:58:31;;;;;;;13.48;11.93;;;;;;;;;;4999095;28;20089;-75
2023/10/14 04:01:01;;;;;;;12.98;11.63;;;;;;;;;;4996592;28;20605;-75
2023/10/14 04:03:51;;;;;;;15.73;12.35;;;;;;;;;;4997334;28;20034;-75
2023/10/14 04:06:19;;;;;;;12.57;11.40;;;;;;;;;;5000119;28;20041;-75
2023/10/14 04:08:49;;;;;;;12.93;11.73;;;;;;;;;;4996894;28;20033;-75
2023/10/14 04:11:17;;;;;;;14.90;10.98;;;;;;;;;;4998083;28;20049;-75
2023/10/14 04:14:04;;;;;;;12.60;11.40;;;;;;;;;;4997875;28;20073;-75
2023/10/14 04:19:28;;;;;;;12.10;11.10;;;;;;;;;;4992177;28;20511;-75
2023/10/14 04:21:59;;;;;;;13.52;12.23;;;;;;;;;;4998988;28;20546;-75
2023/10/14 04:24:45;;;;;;;13.68;12.38;;;;;;;;;;4998845;28;20043;-75
2023/10/14 04:27:17;;;;;;;12.75;11.55;;;;;;;;;;5002611;28;20052;-75
2023/10/14 04:29:57;;;;;;;13.25;11.93;;;;;;;;;;4988892;28;20401;-75
2023/10/14 04:32:28;;;;;;;13.25;12.00;;;;;;;;;;4998699;28;20041;-75
2023/10/14 04:34:56;;;;;;;12.65;11.35;;;;;;;;;;4994105;28;20038;-75
2023/10/14 04:37:21;;;;;;;12.52;11.35;;;;;;;;;;4997198;28;20042;-76
2023/10/14 04:39:49;;;;;;;13.70;12.07;;;;;;;;;;4992186;28;20034;-75
2023/10/14 04:42:22;;;;;;;13.00;11.50;;;;;;;;;;4999216;28;20046;-75
2023/10/14 04:44:59;;;;;;;14.43;11.57;;;;;;;;;;4996675;28;20573;-75
2023/10/14 04:47:35;;;;;;;13.23;11.95;;;;;;;;;;4996367;28;20034;-75
2023/10/14 04:50:14;;;;;;;12.63;11.57;;;;;;;;;;4998540;28;20091;-76
2023/10/14 04:52:41;;;;;;;12.57;11.38;;;;;;;;;;4995333;28;20038;-76
2023/10/14 04:58:07;;;;;;;13.07;11.70;;;;;;;;;;4995667;28;20045;-75
2023/10/14 05:00:38;;;;;;;13.63;12.23;;;;;;;;;;4998762;28;20044;-75
2023/10/14 05:03:05;;;;;;;14.32;11.40;;;;;;;;;;4995432;28;20081;-75
2023/10/14 05:05:33;;;;;;;13.68;12.35;;;;;;;;;;4992515;28;20699;-75
2023/10/14 05:08:02;;;;;;;13.85;12.32;;;;;;;;;;4986182;28;20038;-75
2023/10/14 05:10:28;;;;;;;13.48;12.05;;;;;;;;;;4996464;28;20046;-75
2023/10/14 05:12:55;;;;;;;17.50;12.00;;;;;;;;;;4992041;28;20357;-75
2023/10/14 05:15:21;;;;;;;16.08;11.90;;;;;;;;;;5003047;28;20113;-75
2023/10/14 05:18:00;;;;;;;12.18;11.07;;;;;;;;;;4995065;28;20196;-75
2023/10/14 05:23:11;;;;;;;13.98;11.93;;;;;;;;;;4999837;28;20034;-75
2023/10/14 05:25:39;;;;;;;13.13;11.70;;;;;;;;;;4988376;28;20045;-76
2023/10/14 05:28:06;;;;;;;12.13;11.02;;;;;;;;;;4999432;28;20034;-76
2023/10/14 05:30:34;;;;;;;13.00;11.73;;;;;;;;;;4988217;28;20045;-76
2023/10/14 05:33:13;;;;;;;13.77;12.07;;;;;;;;;;4990827;28;20200;-76
2023/10/14 05:35:42;;;;;;;13.73;11.85;;;;;;;;;;4996746;28;20415;-76
2023/10/14 05:38:11;;;;;;;17.05;12.10;;;;;;;;;;4997665;28;20503;-75
2023/10/14 05:40:38;;;;;;;13.38;11.02;;;;;;;;;;4995481;28;20619;-76
2023/10/14 05:43:06;;;;;;;14.65;11.70;;;;;;;;;;4994041;28;20392;-76
2023/10/14 05:45:38;;;;;;;12.15;11.15;;;;;;;;;;4996480;28;20103;-75
2023/10/14 05:48:07;;;;;;;11.70;10.70;;;;;;;;;;4988439;28;20109;-75
2023/10/14 05:50:35;;;;;;;12.88;11.55;;;;;;;;;;4994991;28;20050;-76
2023/10/14 05:53:01;;;;;;;12.38;11.15;;;;;;;;;;5011561;28;20046;-76
2023/10/14 05:55:31;;;;;;;12.57;11.30;;;;;;;;;;4997392;28;20439;-76
2023/10/14 05:58:00;;;;;;;13.07;11.00;;;;;;;;;;4992954;28;20528;-75
2023/10/14 06:00:27;;;;;;;14.77;11.85;;;;;;;;;;5000494;28;20033;-76
2023/10/14 06:02:57;;;;;;;13.75;11.45;;;;;;;;;;4992849;28;20041;-76
2023/10/14 06:05:24;;;;;;;13.88;11.20;;;;;;;;;;4988212;28;20073;-76
2023/10/14 06:07:59;;;;;;;12.75;11.40;;;;;;;;;;4993867;28;20041;-76
2023/10/14 06:10:29;;;;;;;12.40;11.13;;;;;;;;;;4998318;28;20042;-76
2023/10/14 06:12:56;;;;;;;12.07;10.88;;;;;;;;;;4996275;28;20057;-76
2023/10/14 06:15:22;;;;;;;11.98;10.80;;;;;;;;;;4997429;28;20065;-76
2023/10/14 06:17:55;;;;;;;12.70;11.50;;;;;;;;;;4993740;28;20034;-76
2023/10/14 06:20:22;;;;;;;12.90;11.65;;;;;;;;;;5001152;28;20085;-76
2023/10/14 06:22:48;;;;;;;12.38;10.70;;;;;;;;;;4992956;28;20388;-76
2023/10/14 06:25:16;;;;;;;14.70;11.88;;;;;;;;;;4983464;28;20049;-76
2023/10/14 06:27:46;;;;;;;12.77;11.57;;;;;;;;;;4997908;28;20111;-75
2023/10/14 06:30:19;;;;;;;13.20;10.77;;;;;;;;;;4999734;28;20040;-77
2023/10/14 06:33:03;;;;;;;13.02;11.68;;;;;;;;;;4993835;28;20430;-75
2023/10/14 06:35:34;;;;;;;13.43;11.25;;;;;;;;;;5001656;28;20045;-74
2023/10/14 06:38:00;;;;;;;13.13;11.93;;;;;;;;;;4993478;28;20154;-77
2023/10/14 06:40:42;;;;;;;13.10;11.65;;;;;;;;;;5002736;28;20034;-76
2023/10/14 06:43:09;;;;;;;14.63;11.68;;;;;;;;;;4995460;28;20098;-76
2023/10/14 06:45:35;;;;;;;12.38;11.20;;;;;;;;;;5001492;28;20896;-77
2023/10/14 06:48:03;;;;;;;12.05;10.95;;;;;;;;;;5001606;28;20446;-77
2023/10/14 06:50:31;;;;;;;13.05;11.55;;;;;;;;;;4996197;28;20038;-76
2023/10/14 06:52:58;;;;;;;12.77;11.57;;;;;;;;;;4993274;28;20037;-76
2023/10/14 06:55:28;;;;;;;13.10;11.80;;;;;;;;;;5002289;28;20037;-76
2023/10/14 06:57:55;;;;;;;12.63;11.45;;;;;;;;;;4999207;28;20051;-76
2023/10/14 07:00:31;;;;;;;12.98;11.68;;;;;;;;;;4991083;28;20455;-76
2023/10/14 07:03:00;;;;;;;13.43;12.10;;;;;;;;;;4995580;28;20038;-76
2023/10/14 07:05:29;;;;;;;13.77;11.98;;;;;;;;;;4989686;28;20224;-77
2023/10/14 07:07:57;;;;;;;;;;;;;;;;;;4987610;28;20053;-76
2023/10/14 07:10:32;;;;;;;13.35;11.63;;;;;;;;;;4990923;28;19924;-76
2023/10/14 07:13:00;;;;;;;12.45;11.30;;;;;;;;;;4992698;28;20128;-77
2023/10/14 07:15:32;;;;;;;13.90;12.40;;;;;;;;;;5003564;28;20034;-77
2023/10/14 07:17:59;;;;;;;14.00;12.60;;;;;;;;;;4999250;28;20039;-77
2023/10/14 07:20:29;;;;;;;14.40;12.32;;;;;;;;;;4995459;28;20045;-76
2023/10/14 07:22:59;;;;;;;15.75;11.27;;;;;;;;;;5001117;28;20131;-77
2023/10/14 07:25:31;;;;;;;13.32;12.02;;;;;;;;;;4991025;28;20121;-77
2023/10/14 07:27:59;;;;;;;12.15;11.07;;;;;;;;;;4984664;28;20053;-76
2023/10/14 07:30:27;;;;;;;13.70;11.25;;;;;;;;;;5000975;28;20060;-76
2023/10/14 07:32:55;;;;;;;13.43;11.80;;;;;;;;;;5002022;28;20038;-75
2023/10/14 07:35:22;;;;;;;26.38;11.70;;;;;;;;;;5003015;28;20029;-75
2023/10/14 07:37:48;;;;;;;12.73;10.88;;;;;;;;;;4993145;28;20076;-75
2023/10/14 07:40:26;;;;;;;12.15;10.75;;;;;;;;;;5000524;28;20033;-75
2023/10/14 07:43:05;;;;;;;13.32;10.68;;;;;;;;;;5004653;28;20041;-75
2023/10/14 07:45:35;;;;;;;14.40;10.77;;;;;;;;;;4998722;28;20506;-74
2023/10/14 07:48:08;;;;;;;11.65;10.65;;;;;;;;;;4991743;28;20403;-75
2023/10/14 07:50:42;;;;;;;12.18;11.10;;;;;;;;;;5003705;28;20049;-75
2023/10/14 07:53:12;;;;;;;12.48;11.20;;;;;;;;;;4992359;28;20527;-77
2023/10/14 07:55:42;;;;;;;11.68;10.55;;;;;;;;;;4991367;28;20045;-77
2023/10/14 07:58:08;;;;;;;11.32;10.30;;;;;;;;;;4994438;28;20041;-76
2023/10/14 08:00:51;;;;;;;12.85;10.93;;;;;;;;;;4989408;28;20052;-75
2023/10/14 08:03:19;;;;;;;11.27;10.20;;;;;;;;;;4990340;28;20030;-76
2023/10/14 08:05:59;;;;;;;11.95;10.85;;;;;;;;;;5000640;28;20038;-76
2023/10/14 08:08:42;;;;;;;10.80;9.93;;;;;;;;;;4989572;28;20655;-76
2023/10/14 08:11:08;;;;;;;10.88;9.85;;;;;;;;;;4986020;28;20034;-76
2023/10/14 08:13:34;;;;;;;12.32;10.57;;;;;;;;;;4990681;28;20050;-76
2023/10/14 08:15:59;;;;;;;12.75;10.18;;;;;;;;;;4984609;28;20037;-76
2023/10/14 08:18:25;;;;;;;11.05;10.07;;;;;;;;;;4987280;28;20244;-76
2023/10/14 08:20:55;;;;;;;11.13;10.02;;;;;;;;;;4992075;28;20030;-76
2023/10/14 08:23:25;;;;;;;11.10;10.20;;;;;;;;;;4997323;28;20035;-76
2023/10/14 08:25:54;;;;;;;11.35;10.35;;;;;;;;;;4992872;28;20523;-76
2023/10/14 08:28:24;;;;;;;11.98;10.30;;;;;;;;;;5000254;28;20043;-75
2023/10/14 08:30:50;;;;;;;12.75;10.90;;;;;;;;;;4992067;28;20034;-75
2023/10/14 08:33:24;;;;;;;11.40;10.32;;;;;;;;;;4995846;28;20419;-77
2023/10/14 08:35:51;;;;;;;16.80;14.52;;;;;;;;;;4994437;28;20042;-73
2023/10/14 08:38:21;;;;;;;16.02;14.55;;;;;;;;;;4997770;28;20034;-74
2023/10/14 08:40:51;;;;;;;16.55;14.80;;;;;;;;;;4986372;28;20044;-74
2023/10/14 08:43:22;;;;;;;17.40;14.82;;;;;;;;;;4997708;28;20034;-74
2023/10/14 08:45:48;;;;;;;16.55;14.60;;;;;;;;;;4989455;28;20034;-74
2023/10/14 08:48:19;;;;;;;16.50;14.80;;;;;;;;;;4997579;28;20408;-75
2023/10/14 08:50:46;;;;;;;16.75;14.38;;;;;;;;;;5002095;28;20123;-74
2023/10/14 08:53:14;;;;;;;14.98;13.43;;;;;;;;;;5005350;28;20038;-75
2023/10/14 08:55:44;;;;;;;17.50;13.30;;;;;;;;;;5003058;28;20040;-75
2023/10/14 08:58:13;;;;;;;13.70;12.32;;;;;;;;;;5003783;28;20588;-74
2023/10/14 09:00:40;;;;;;;15.18;12.90;;;;;;;;;;4996522;28;20377;-75
2023/10/14 09:03:09;;;;;;;13.43;12.13;;;;;;;;;;4994862;28;20132;-75
2023/10/14 09:05:44;;;;;;;13.27;11.73;;;;;;;;;;4996583;28;20411;-75
2023/10/14 09:08:11;;;;;;;12.73;11.23;;;;;;;;;;4994248;28;20061;-75
2023/10/14 09:10:37;;;;;;;12.30;10.98;;;;;;;;;;4994410;28;20042;-75
2023/10/14 09:13:06;;;;;;;11.90;10.70;;;;;;;;;;4992693;28;20053;-75
2023/10/14 09:15:42;;;;;;;11.93;10.90;;;;;;;;;;5001474;28;20060;-75
2023/10/14 09:18:21;;;;;;;10.82;9.73;;;;;;;;;;4996429;28;20190;-74
2023/10/14 09:20:53;;;;;;;12.30;9.60;;;;;;;;;;4984873;28;20559;-75
2023/10/14 09:25:59;;;;;;;11.70;10.55;;;;;;;;;;4993720;28;20046;-75
2023/10/14 09:28:27;;;;;;;14.52;10.23;;;;;;;;;;4985511;28;20065;-75
2023/10/14 09:30:55;;;;;;;11.15;10.05;;;;;;;;;;4993704;28;20045;-74
2023/10/14 09:33:32;;;;;;;11.53;10.40;;;;;;;;;;5007442;28;20034;-75
2023/10/14 09:35:59;;;;;;;10.57;8.68;;;;;;;;;;5000156;28;20038;-74
2023/10/14 09:38:27;;;;;;;9.05;8.35;;;;;;;;;;4998733;28;20034;-74
2023/10/14 09:40:59;;;;;;;8.40;7.90;;;;;;;;;;4991857;28;20034;-75
2023/10/14 09:43:25;;;;;;;8.73;8.23;;;;;;;;;;4996966;28;20149;-75
2023/10/14 09:45:56;;;;;;;9.60;8.88;;;;;;;;;;5000891;28;20581;-75
2023/10/14 09:48:27;;;;;;;9.77;8.98;;;;;;;;;;4998221;28;20029;-75
2023/10/14 09:50:57;;;;;;;9.77;9.15;;;;;;;;;;5014989;28;20034;-75
2023/10/14 09:53:29;;;;;;;10.65;9.93;;;;;;;;;;5001407;28;20084;-75
2023/10/14 09:55:57;;;;;;;11.38;10.68;;;;;;;;;;4997994;28;20042;-75
2023/10/14 09:58:26;;;;;;;14.30;13.40;;;;;;;;;;5001800;28;20036;-75
2023/10/14 10:00:53;;;;;;;13.85;12.85;;;;;;;;;;4994216;28;20584;-74
2023/10/14 10:03:19;;;;;;;15.48;14.23;;;;;;;;;;5003321;28;20140;-74
2023/10/14 10:06:13;;;;;;;15.70;14.63;;;;;;;;;;4994040;28;20042;-75
2023/10/14 10:08:52;;;;;;;15.93;14.73;;;;;;;;;;4984153;28;20030;-75
2023/10/14 10:11:23;;;;;;;15.80;14.80;;;;;;;;;;4985317;28;20042;-75
2023/10/14 10:13:54;;;;;;;16.00;14.85;;;;;;;;;;4988392;28;20949;-77
2023/10/14 10:16:29;;;;;;;16.05;14.75;;;;;;;;;;5001895;28;20499;-76
2023/10/14 10:18:57;;;;;;;15.82;14.82;;;;;;;;;;4993679;28;20127;-76
2023/10/14 10:21:34;;;;;;;14.95;13.95;;;;;;;;;;5001720;28;20734;-77
2023/10/14 10:24:24;;;;;;;16.25;14.85;;;;;;;;;;4993492;28;20118;-76
2023/10/14 10:27:10;;;;;;;15.50;14.50;;;;;;;;;;4982719;28;20128;-77
2023/10/14 10:29:49;;;;;;;15.27;14.05;;;;;;;;;;4993577;28;20222;-78
2023/10/14 10:32:19;;;;;;;15.15;13.95;;;;;;;;;;4999386;28;20040;-77
2023/10/14 10:35:06;;;;;;;15.15;14.15;;;;;;;;;;4991112;28;20050;-77
2023/10/14 10:37:57;;;;;;;14.73;13.82;;;;;;;;;;4994114;28;20034;-76
2023/10/14 10:40:28;;;;;;;14.57;13.43;;;;;;;;;;4993431;28;20038;-76
2023/10/14 10:43:06;;;;;;;13.95;13.10;;;;;;;;;;4985296;28;20046;-75
2023/10/14 10:45:42;;;;;;;13.55;12.75;;;;;;;;;;4995399;28;20041;-74
2023/10/14 10:48:14;;;;;;;13.40;12.60;;;;;;;;;;4996195;28;20022;-74
2023/10/14 10:50:42;;;;;;;13.38;12.57;;;;;;;;;;4997099;28;20057;-73
2023/10/14 10:53:08;;;;;;;13.90;13.00;;;;;;;;;;4997268;28;20033;-73
2023/10/14 10:55:38;;;;;;;13.80;12.90;;;;;;;;;;4996002;28;20396;-73
2023/10/14 10:58:06;;;;;;;13.82;13.02;;;;;;;;;;4993784;28;20038;-73
2023/10/14 11:00:32;;;;;;;14.18;13.23;;;;;;;;;;5002106;28;20037;-74
2023/10/14 11:03:03;;;;;;;14.35;13.45;;;;;;;;;;4997618;28;20075;-73
2023/10/14 11:05:33;;;;;;;14.40;13.50;;;;;;;;;;4997264;28;20419;-73
2023/10/14 11:08:00;;;;;;;14.48;13.38;;;;;;;;;;4995648;28;20036;-73
2023/10/14 11:10:31;;;;;;;14.02;13.13;;;;;;;;;;4987746;28;20107;-73
2023/10/14 11:12:57;;;;;;;15.20;14.02;;;;;;;;;;4983520;28;20041;-73
2023/10/14 11:15:25;;;;;;;19.50;13.63;;;;;;;;;;4989202;28;20145;-73
2023/10/14 11:17:58;;;;;;;14.48;13.57;;;;;;;;;;4995606;28;20041;-72
2023/10/14 11:20:33;;;;;;;15.32;14.23;;;;;;;;;;4998406;28;20045;-72
2023/10/14 11:23:08;;;;;;;15.88;14.65;;;;;;;;;;4992890;28;20037;-72
2023/10/14 11:25:40;;;;;;;14.85;13.75;;;;;;;;;;4994344;28;20042;-76
2023/10/14 11:28:15;;;;;;;14.63;13.43;;;;;;;;;;4999321;28;20529;-76
2023/10/14 11:30:43;;;;;;;15.40;14.40;;;;;;;;;;4984594;28;20404;-72
2023/10/14 11:33:10;;;;;;;15.10;14.00;;;;;;;;;;4997902;28;20176;-71
2023/10/14 11:35:39;;;;;;;15.88;14.75;;;;;;;;;;4988613;28;20046;-71
2023/10/14 11:38:13;;;;;;;15.15;14.10;;;;;;;;;;4999017;28;20038;-74
2023/10/14 11:40:40;;;;;;;15.20;14.20;;;;;;;;;;4987641;28;20107;-74
2023/10/14 11:43:11;;;;;;;14.57;13.48;;;;;;;;;;4991898;28;20049;-72
2023/10/14 11:45:43;;;;;;;16.48;14.77;;;;;;;;;;4995615;28;20161;-74
2023/10/14 11:48:22;;;;;;;15.38;14.35;;;;;;;;;;4994829;28;20026;-73
2023/10/14 11:50:50;;;;;;;;;;;;;;;;;;4993279;28;20109;-71
2023/10/14 11:53:22;;;;;;;15.23;14.27;;;;;;;;;;4998643;28;19921;-74
2023/10/14 11:55:48;;;;;;;16.10;14.93;;;;;;;;;;4993805;28;20038;-72
2023/10/14 11:58:13;;;;;;;14.55;13.40;;;;;;;;;;4993372;28;20084;-72
2023/10/14 12:00:41;;;;;;;14.32;13.23;;;;;;;;;;4995382;28;20038;-72
2023/10/14 12:03:07;;;;;;;14.18;13.27;;;;;;;;;;5000050;28;20579;-72
2023/10/14 12:05:39;;;;;;;14.32;13.50;;;;;;;;;;4999856;28;20073;-72
2023/10/14 12:08:08;;;;;;;14.75;13.75;;;;;;;;;;4994996;28;20064;-71
2023/10/14 12:10:36;;;;;;;13.77;12.88;;;;;;;;;;4992424;28;20037;-74
2023/10/14 12:13:03;;;;;;;14.93;13.90;;;;;;;;;;4993858;28;20496;-74
2023/10/14 12:15:35;;;;;;;14.90;13.88;;;;;;;;;;4987869;28;20104;-71
2023/10/14 12:18:03;;;;;;;14.80;13.80;;;;;;;;;;4990703;28;20081;-72
2023/10/14 12:20:29;;;;;;;15.18;14.27;;;;;;;;;;4996082;28;20137;-73
2023/10/14 12:22:55;;;;;;;14.32;13.32;;;;;;;;;;4996527;28;20137;-72
2023/10/14 12:25:21;;;;;;;14.90;14.00;;;;;;;;;;5003189;28;20052;-74
2023/10/14 12:27:48;;;;;;;14.65;13.75;;;;;;;;;;4998534;28;20043;-72
2023/10/14 12:33:04;;;;;;;14.48;13.68;;;;;;;;;;5002396;28;20045;-74
2023/10/14 12:35:34;;;;;;;14.73;13.73;;;;;;;;;;5000176;28;20038;-72
2023/10/14 12:38:00;;;;;;;14.80;13.70;;;;;;;;;;5002536;28;20034;-74
2023/10/14 12:40:33;;;;;;;14.35;13.52;;;;;;;;;;5000524;28;20025;-72
2023/10/14 12:43:01;;;;;;;14.32;13.43;;;;;;;;;;5001004;28;20101;-73
2023/10/14 12:45:27;;;;;;;13.95;13.13;;;;;;;;;;4985163;28;20034;-73
2023/10/14 12:48:11;;;;;;;15.05;14.15;;;;;;;;;;4994210;28;20044;-72
2023/10/14 12:50:46;;;;;;;15.20;14.20;;;;;;;;;;4992490;28;20038;-72
2023/10/14 12:53:13;;;;;;;14.73;13.82;;;;;;;;;;4990680;28;20038;-72
2023/10/14 12:55:44;;;;;;;14.45;13.52;;;;;;;;;;4992303;28;20045;-73
2023/10/14 12:58:12;;;;;;;14.75;13.75;;;;;;;;;;4990267;28;20888;-73
2023/10/14 13:00:38;;;;;;;14.23;13.32;;;;;;;;;;4995670;28;20112;-73
2023/10/14 13:03:09;;;;;;;13.77;12.98;;;;;;;;;;4980215;28;20435;-72
2023/10/14 13:05:36;;;;;;;14.45;13.60;;;;;;;;;;4996371;28;20475;-73
2023/10/14 13:08:02;;;;;;;13.90;13.10;;;;;;;;;;4995291;28;20483;-72
2023/10/14 13:10:28;;;;;;;14.73;13.38;;;;;;;;;;4994343;28;20107;-73
2023/10/14 13:12:58;;;;;;;14.55;13.45;;;;;;;;;;4989637;28;20053;-74
2023/10/14 13:15:29;;;;;;;14.60;13.70;;;;;;;;;;4993877;28;20216;-73
2023/10/14 13:18:01;;;;;;;13.90;12.93;;;;;;;;;;4992212;28;20135;-75
2023/10/14 13:20:30;;;;;;;14.38;13.48;;;;;;;;;;4986644;28;20447;-74
2023/10/14 13:22:58;;;;;;;;;;;;;;;;;;4992100;28;20049;-74
2023/10/14 13:25:24;;;;;;;14.55;13.57;;;;;;;;;;4987948;28;19913;-75
2023/10/14 13:27:53;;;;;;;13.98;13.18;;;;;;;;;;4992407;28;20030;-76
2023/10/14 13:30:24;;;;;;;13.73;12.93;;;;;;;;;;4984312;28;20041;-75
2023/10/14 13:32:53;;;;;;;13.80;12.95;;;;;;;;;;4986486;28;20112;-73
2023/10/14 13:35:19;;;;;;;14.60;13.48;;;;;;;;;;4994110;28;20038;-73
2023/10/14 13:37:47;;;;;;;14.57;13.57;;;;;;;;;;4989516;28;20686;-76
2023/10/14 13:40:20;;;;;;;13.98;13.15;;;;;;;;;;4990263;28;20040;-73
2023/10/14 13:42:47;;;;;;;14.50;13.60;;;;;;;;;;4990226;28;20128;-74
2023/10/14 13:45:12;;;;;;;14.07;13.27;;;;;;;;;;4989813;28;20133;-73
2023/10/14 13:47:38;;;;;;;14.57;13.77;;;;;;;;;;4992880;28;20303;-73
2023/10/14 13:50:04;;;;;;;13.57;12.77;;;;;;;;;;4992632;28;20062;-73
2023/10/14 13:52:32;;;;;;;13.65;12.85;;;;;;;;;;4989460;28;20069;-73
2023/10/14 13:54:58;;;;;;;14.07;13.20;;;;;;;;;;5001976;28;20551;-74
2023/10/14 13:57:24;;;;;;;14.60;13.60;;;;;;;;;;4990725;28;20060;-73
2023/10/14 13:59:53;;;;;;;14.60;13.63;;;;;;;;;;4991389;28;20092;-72
2023/10/14 14:02:19;;;;;;;;;;;;;;;;;;5001940;28;20149;-73
2023/10/14 14:04:45;;;;;;;14.45;13.55;;;;;;;;;;4993434;28;20442;-74
2023/10/14 14:07:12;;;;;;;15.00;13.93;;;;;;;;;;4995717;28;20038;-75
2023/10/14 14:09:38;;;;;;;13.85;13.02;;;;;;;;;;4992275;28;20908;-75
2023/10/14 14:12:06;;;;;;;14.82;13.93;;;;;;;;;;4988204;28;20033;-75
2023/10/14 14:14:36;;;;;;;14.15;13.25;;;;;;;;;;4996281;28;20038;-75
2023/10/14 14:17:05;;;;;;;14.20;13.30;;;;;;;;;;4993814;28;20052;-74
2023/10/14 14:19:31;;;;;;;14.65;13.63;;;;;;;;;;4951006;28;1219605;-74
2023/10/14 14:21:58;;;;;;;13.90;13.00;;;;;;;;;;4997151;28;20081;-74
2023/10/14 14:24:24;;;;;;;13.70;12.80;;;;;;;;;;4992247;28;20046;-74
2023/10/14 14:26:51;;;;;;;12.90;12.18;;;;;;;;;;4994292;28;20419;-74
2023/10/14 14:29:17;;;;;;;13.45;12.52;;;;;;;;;;4989126;28;20050;-74
2023/10/14 14:31:44;;;;;;;13.77;12.80;;;;;;;;;;5001957;28;20049;-74
2023/10/14 14:34:12;;;;;;;13.75;12.65;;;;;;;;;;5001825;28;20046;-74
2023/10/14 14:36:38;;;;;;;13.38;12.50;;;;;;;;;;5004568;28;20388;-74
2023/10/14 14:39:04;;;;;;;13.77;12.77;;;;;;;;;;5005424;28;20093;-74
2023/10/14 14:41:30;;;;;;;13.25;12.35;;;;;;;;;;5004100;28;20038;-74
2023/10/14 14:43:57;;;;;;;13.13;12.27;;;;;;;;;;4993003;28;20049;-74
2023/10/14 14:46:23;;;;;;;13.13;12.23;;;;;;;;;;4992901;28;20030;-74
2023/10/14 14:48:49;;;;;;;13.15;12.35;;;;;;;;;;4990069;28;20034;-73
2023/10/14 14:51:15;;;;;;;12.82;11.93;;;;;;;;;;4993656;28;20045;-73
2023/10/14 14:53:41;;;;;;;12.65;11.70;;;;;;;;;;4989029;28;20038;-75
2023/10/14 14:56:09;;;;;;;13.18;12.32;;;;;;;;;;4993752;28;20042;-73
2023/10/14 14:58:36;;;;;;;13.05;12.25;;;;;;;;;;4990268;28;20483;-74
2023/10/14 15:01:03;;;;;;;13.20;12.40;;;;;;;;;;4994568;28;20982;-74
2023/10/14 15:03:29;;;;;;;14.55;13.30;;;;;;;;;;4985978;28;20049;-74
2023/10/14 15:05:55;;;;;;;14.00;13.05;;;;;;;;;;4976459;28;20034;-74
2023/10/14 15:08:23;;;;;;;13.35;12.35;;;;;;;;;;4997841;28;20034;-75
2023/10/14 15:10:54;;;;;;;13.13;12.10;;;;;;;;;;4992745;28;20041;-75
2023/10/14 15:13:20;;;;;;;12.85;11.95;;;;;;;;;;4992697;28;20054;-74
2023/10/14 15:15:52;;;;;;;13.60;12.50;;;;;;;;;;4997327;28;20040;-75
2023/10/14 15:18:18;;;;;;;14.35;12.90;;;;;;;;;;4998367;28;20530;-75
2023/10/14 15:20:46;;;;;;;14.13;12.57;;;;;;;;;;5003598;28;20049;-73
2023/10/14 15:23:15;;;;;;;14.18;13.00;;;;;;;;;;5011268;28;20109;-76